sensor_id;sensor_type;location;lat;lon;timestamp;P1;durP1;ratioP1;P2;durP2;ratioP2
22543;SDS011;11438;52.044;8.716;2022-07-23T00:00:18;4.60;;;3.35;;
22543;SDS011;11438;52.044;8.716;2022-07-23T00:02:44;5.75;;;3.20;;
22543;SDS011;11438;52.044;8.716;2022-07-23T00:05:10;3.65;;;2.75;;
22543;SDS011;11438;52.044;8.716;2022-07-23T00:07:35;3.67;;;2.40;;
22543;SDS011;11438;52.044;8.716;2022-07-23T00:10:01;4.07;;;2.95;;
22543;SDS011;11438;52.044;8.716;2022-07-23T00:12:27;4.65;;;2.70;;
22543;SDS011;11438;52.044;8.716;2022-07-23T00:14:52;4.03;;;2.90;;
22543;SDS011;11438;52.044;8.716;2022-07-23T00:17:18;4.13;;;2.95;;
22543;SDS011;11438;52.044;8.716;2022-07-23T00:19:43;3.63;;;2.60;;
22543;SDS011;11438;52.044;8.716;2022-07-23T00:22:09;3.35;;;2.80;;
22543;SDS011;11438;52.044;8.716;2022-07-23T00:24:34;3.67;;;2.83;;
22543;SDS011;11438;52.044;8.716;2022-07-23T00:27:00;2.47;;;2.28;;
22543;SDS011;11438;52.044;8.716;2022-07-23T00:29:26;5.30;;;2.88;;
22543;SDS011;11438;52.044;8.716;2022-07-23T00:31:51;4.72;;;2.70;;
22543;SDS011;11438;52.044;8.716;2022-07-23T00:34:17;5.15;;;3.40;;
22543;SDS011;11438;52.044;8.716;2022-07-23T00:36:42;5.53;;;3.05;;
22543;SDS011;11438;52.044;8.716;2022-07-23T00:39:08;5.43;;;3.25;;
22543;SDS011;11438;52.044;8.716;2022-07-23T00:41:33;4.03;;;2.45;;
22543;SDS011;11438;52.044;8.716;2022-07-23T00:44:18;4.30;;;2.67;;
22543;SDS011;11438;52.044;8.716;2022-07-23T00:46:53;6.45;;;3.00;;
22543;SDS011;11438;52.044;8.716;2022-07-23T00:49:24;4.28;;;2.90;;
22543;SDS011;11438;52.044;8.716;2022-07-23T00:51:51;3.40;;;2.63;;
22543;SDS011;11438;52.044;8.716;2022-07-23T00:54:18;3.95;;;2.60;;
22543;SDS011;11438;52.044;8.716;2022-07-23T00:56:44;4.53;;;2.80;;
22543;SDS011;11438;52.044;8.716;2022-07-23T00:59:11;3.35;;;2.53;;
22543;SDS011;11438;52.044;8.716;2022-07-23T01:01:37;4.07;;;2.40;;
22543;SDS011;11438;52.044;8.716;2022-07-23T01:04:03;4.30;;;3.22;;
22543;SDS011;11438;52.044;8.716;2022-07-23T01:06:29;6.10;;;3.28;;
22543;SDS011;11438;52.044;8.716;2022-07-23T01:08:55;5.72;;;3.80;;
22543;SDS011;11438;52.044;8.716;2022-07-23T01:11:22;5.18;;;4.03;;
22543;SDS011;11438;52.044;8.716;2022-07-23T01:13:48;5.03;;;3.45;;
22543;SDS011;11438;52.044;8.716;2022-07-23T01:16:14;6.07;;;3.38;;
22543;SDS011;11438;52.044;8.716;2022-07-23T01:18:39;4.07;;;2.97;;
22543;SDS011;11438;52.044;8.716;2022-07-23T01:21:05;5.25;;;3.70;;
22543;SDS011;11438;52.044;8.716;2022-07-23T01:23:30;6.50;;;3.47;;
22543;SDS011;11438;52.044;8.716;2022-07-23T01:25:56;6.00;;;3.50;;
22543;SDS011;11438;52.044;8.716;2022-07-23T01:28:21;5.93;;;3.70;;
22543;SDS011;11438;52.044;8.716;2022-07-23T01:30:47;4.88;;;3.45;;
22543;SDS011;11438;52.044;8.716;2022-07-23T01:33:13;4.45;;;3.30;;
22543;SDS011;11438;52.044;8.716;2022-07-23T01:35:39;6.35;;;3.60;;
22543;SDS011;11438;52.044;8.716;2022-07-23T01:38:04;5.47;;;2.95;;
22543;SDS011;11438;52.044;8.716;2022-07-23T01:40:30;5.07;;;3.92;;
22543;SDS011;11438;52.044;8.716;2022-07-23T01:42:55;6.28;;;3.38;;
22543;SDS011;11438;52.044;8.716;2022-07-23T01:45:21;5.07;;;3.55;;
22543;SDS011;11438;52.044;8.716;2022-07-23T01:47:47;5.65;;;2.80;;
22543;SDS011;11438;52.044;8.716;2022-07-23T01:50:13;6.25;;;3.88;;
22543;SDS011;11438;52.044;8.716;2022-07-23T01:52:38;4.30;;;3.42;;
22543;SDS011;11438;52.044;8.716;2022-07-23T01:55:04;8.00;;;3.83;;
22543;SDS011;11438;52.044;8.716;2022-07-23T01:57:30;6.05;;;3.97;;
22543;SDS011;11438;52.044;8.716;2022-07-23T01:59:56;5.68;;;3.47;;
22543;SDS011;11438;52.044;8.716;2022-07-23T02:02:22;5.57;;;3.35;;
22543;SDS011;11438;52.044;8.716;2022-07-23T02:04:47;6.47;;;4.25;;
22543;SDS011;11438;52.044;8.716;2022-07-23T02:07:13;4.10;;;3.20;;
22543;SDS011;11438;52.044;8.716;2022-07-23T02:09:38;6.78;;;3.88;;
22543;SDS011;11438;52.044;8.716;2022-07-23T02:12:04;4.47;;;3.35;;
22543;SDS011;11438;52.044;8.716;2022-07-23T02:14:29;5.78;;;3.70;;
22543;SDS011;11438;52.044;8.716;2022-07-23T02:16:55;5.28;;;3.30;;
22543;SDS011;11438;52.044;8.716;2022-07-23T02:19:20;4.40;;;3.35;;
22543;SDS011;11438;52.044;8.716;2022-07-23T02:21:46;4.95;;;3.58;;
22543;SDS011;11438;52.044;8.716;2022-07-23T02:24:12;4.93;;;3.88;;
22543;SDS011;11438;52.044;8.716;2022-07-23T02:26:37;6.13;;;3.67;;
22543;SDS011;11438;52.044;8.716;2022-07-23T02:29:03;8.68;;;3.80;;
22543;SDS011;11438;52.044;8.716;2022-07-23T02:31:29;5.07;;;3.85;;
22543;SDS011;11438;52.044;8.716;2022-07-23T02:33:55;5.95;;;3.92;;
22543;SDS011;11438;52.044;8.716;2022-07-23T02:36:21;4.85;;;3.65;;
22543;SDS011;11438;52.044;8.716;2022-07-23T02:38:47;5.85;;;3.95;;
22543;SDS011;11438;52.044;8.716;2022-07-23T02:41:12;6.15;;;3.63;;
22543;SDS011;11438;52.044;8.716;2022-07-23T02:43:38;4.53;;;3.47;;
22543;SDS011;11438;52.044;8.716;2022-07-23T02:46:03;7.57;;;3.97;;
22543;SDS011;11438;52.044;8.716;2022-07-23T02:48:29;4.55;;;3.65;;
22543;SDS011;11438;52.044;8.716;2022-07-23T02:50:55;7.38;;;4.22;;
22543;SDS011;11438;52.044;8.716;2022-07-23T02:53:21;5.50;;;3.70;;
22543;SDS011;11438;52.044;8.716;2022-07-23T02:55:47;4.68;;;3.78;;
22543;SDS011;11438;52.044;8.716;2022-07-23T02:58:13;7.00;;;4.63;;
22543;SDS011;11438;52.044;8.716;2022-07-23T03:00:38;7.75;;;4.28;;
22543;SDS011;11438;52.044;8.716;2022-07-23T03:03:04;6.22;;;4.18;;
22543;SDS011;11438;52.044;8.716;2022-07-23T03:05:29;8.57;;;4.63;;
22543;SDS011;11438;52.044;8.716;2022-07-23T03:07:55;6.40;;;4.13;;
22543;SDS011;11438;52.044;8.716;2022-07-23T03:10:20;6.57;;;4.20;;
22543;SDS011;11438;52.044;8.716;2022-07-23T03:12:46;4.57;;;3.58;;
22543;SDS011;11438;52.044;8.716;2022-07-23T03:15:11;7.45;;;3.83;;
22543;SDS011;11438;52.044;8.716;2022-07-23T03:17:37;6.70;;;3.80;;
22543;SDS011;11438;52.044;8.716;2022-07-23T03:20:02;5.95;;;3.88;;
22543;SDS011;11438;52.044;8.716;2022-07-23T03:22:28;6.60;;;5.07;;
22543;SDS011;11438;52.044;8.716;2022-07-23T03:24:54;6.45;;;4.57;;
22543;SDS011;11438;52.044;8.716;2022-07-23T03:27:29;7.47;;;4.82;;
22543;SDS011;11438;52.044;8.716;2022-07-23T03:29:55;6.10;;;4.57;;
22543;SDS011;11438;52.044;8.716;2022-07-23T03:32:22;9.38;;;4.15;;
22543;SDS011;11438;52.044;8.716;2022-07-23T03:34:49;9.50;;;4.15;;
22543;SDS011;11438;52.044;8.716;2022-07-23T03:37:15;7.43;;;4.13;;
22543;SDS011;11438;52.044;8.716;2022-07-23T03:39:41;10.25;;;4.25;;
22543;SDS011;11438;52.044;8.716;2022-07-23T03:42:06;8.10;;;4.30;;
22543;SDS011;11438;52.044;8.716;2022-07-23T03:44:32;8.63;;;3.97;;
22543;SDS011;11438;52.044;8.716;2022-07-23T03:46:58;6.13;;;3.85;;
22543;SDS011;11438;52.044;8.716;2022-07-23T03:49:23;6.68;;;3.55;;
22543;SDS011;11438;52.044;8.716;2022-07-23T03:51:49;5.20;;;3.50;;
22543;SDS011;11438;52.044;8.716;2022-07-23T03:54:15;7.40;;;3.63;;
22543;SDS011;11438;52.044;8.716;2022-07-23T03:56:40;5.07;;;3.78;;
22543;SDS011;11438;52.044;8.716;2022-07-23T03:59:07;6.95;;;3.88;;
22543;SDS011;11438;52.044;8.716;2022-07-23T04:01:33;6.32;;;3.80;;
22543;SDS011;11438;52.044;8.716;2022-07-23T04:03:59;6.05;;;4.00;;
22543;SDS011;11438;52.044;8.716;2022-07-23T04:06:24;6.95;;;4.03;;
22543;SDS011;11438;52.044;8.716;2022-07-23T04:08:50;5.45;;;3.50;;
22543;SDS011;11438;52.044;8.716;2022-07-23T04:11:15;5.57;;;4.07;;
22543;SDS011;11438;52.044;8.716;2022-07-23T04:13:41;7.25;;;3.95;;
22543;SDS011;11438;52.044;8.716;2022-07-23T04:16:06;6.20;;;3.67;;
22543;SDS011;11438;52.044;8.716;2022-07-23T04:18:32;4.68;;;3.58;;
22543;SDS011;11438;52.044;8.716;2022-07-23T04:20:58;5.68;;;4.10;;
22543;SDS011;11438;52.044;8.716;2022-07-23T04:23:23;6.18;;;3.47;;
22543;SDS011;11438;52.044;8.716;2022-07-23T04:25:49;7.57;;;3.85;;
22543;SDS011;11438;52.044;8.716;2022-07-23T04:28:14;8.25;;;4.32;;
22543;SDS011;11438;52.044;8.716;2022-07-23T04:30:40;4.38;;;3.05;;
22543;SDS011;11438;52.044;8.716;2022-07-23T04:33:05;5.32;;;3.25;;
22543;SDS011;11438;52.044;8.716;2022-07-23T04:35:32;6.88;;;3.47;;
22543;SDS011;11438;52.044;8.716;2022-07-23T04:37:58;5.45;;;3.85;;
22543;SDS011;11438;52.044;8.716;2022-07-23T04:40:24;4.13;;;3.33;;
22543;SDS011;11438;52.044;8.716;2022-07-23T04:42:50;4.82;;;3.80;;
22543;SDS011;11438;52.044;8.716;2022-07-23T04:45:16;5.25;;;3.95;;
22543;SDS011;11438;52.044;8.716;2022-07-23T04:47:41;5.50;;;3.53;;
22543;SDS011;11438;52.044;8.716;2022-07-23T04:50:07;4.32;;;3.45;;
22543;SDS011;11438;52.044;8.716;2022-07-23T04:52:32;6.55;;;3.72;;
22543;SDS011;11438;52.044;8.716;2022-07-23T04:54:58;4.03;;;3.35;;
22543;SDS011;11438;52.044;8.716;2022-07-23T04:57:23;5.70;;;3.50;;
22543;SDS011;11438;52.044;8.716;2022-07-23T04:59:49;4.72;;;2.95;;
22543;SDS011;11438;52.044;8.716;2022-07-23T05:02:15;4.30;;;3.50;;
22543;SDS011;11438;52.044;8.716;2022-07-23T05:04:45;6.90;;;4.20;;
22543;SDS011;11438;52.044;8.716;2022-07-23T05:07:10;7.75;;;4.50;;
22543;SDS011;11438;52.044;8.716;2022-07-23T05:09:36;5.38;;;3.85;;
22543;SDS011;11438;52.044;8.716;2022-07-23T05:12:01;4.95;;;3.97;;
22543;SDS011;11438;52.044;8.716;2022-07-23T05:14:27;10.25;;;4.40;;
22543;SDS011;11438;52.044;8.716;2022-07-23T05:16:53;4.80;;;4.30;;
22543;SDS011;11438;52.044;8.716;2022-07-23T05:19:18;3.85;;;3.00;;
22543;SDS011;11438;52.044;8.716;2022-07-23T05:21:44;8.15;;;4.15;;
22543;SDS011;11438;52.044;8.716;2022-07-23T05:24:09;6.68;;;4.13;;
22543;SDS011;11438;52.044;8.716;2022-07-23T05:26:35;5.57;;;3.72;;
22543;SDS011;11438;52.044;8.716;2022-07-23T05:29:00;7.85;;;3.67;;
22543;SDS011;11438;52.044;8.716;2022-07-23T05:31:26;5.82;;;3.58;;
22543;SDS011;11438;52.044;8.716;2022-07-23T05:33:51;7.95;;;4.05;;
22543;SDS011;11438;52.044;8.716;2022-07-23T05:36:17;5.07;;;3.65;;
22543;SDS011;11438;52.044;8.716;2022-07-23T05:38:42;5.90;;;3.55;;
22543;SDS011;11438;52.044;8.716;2022-07-23T05:41:08;6.22;;;4.38;;
22543;SDS011;11438;52.044;8.716;2022-07-23T05:43:34;5.32;;;4.40;;
22543;SDS011;11438;52.044;8.716;2022-07-23T05:45:59;5.15;;;4.03;;
22543;SDS011;11438;52.044;8.716;2022-07-23T05:48:25;8.25;;;4.20;;
22543;SDS011;11438;52.044;8.716;2022-07-23T05:50:50;7.38;;;4.50;;
22543;SDS011;11438;52.044;8.716;2022-07-23T05:53:16;8.15;;;4.45;;
22543;SDS011;11438;52.044;8.716;2022-07-23T05:55:41;6.50;;;4.32;;
22543;SDS011;11438;52.044;8.716;2022-07-23T05:58:07;7.13;;;4.65;;
22543;SDS011;11438;52.044;8.716;2022-07-23T06:00:34;6.15;;;4.03;;
22543;SDS011;11438;52.044;8.716;2022-07-23T06:02:59;5.45;;;4.53;;
22543;SDS011;11438;52.044;8.716;2022-07-23T06:05:25;8.88;;;4.35;;
22543;SDS011;11438;52.044;8.716;2022-07-23T06:07:51;8.05;;;4.93;;
22543;SDS011;11438;52.044;8.716;2022-07-23T06:10:17;6.43;;;4.45;;
22543;SDS011;11438;52.044;8.716;2022-07-23T06:12:42;9.43;;;5.05;;
22543;SDS011;11438;52.044;8.716;2022-07-23T06:15:08;8.32;;;4.65;;
22543;SDS011;11438;52.044;8.716;2022-07-23T06:17:34;6.70;;;4.90;;
22543;SDS011;11438;52.044;8.716;2022-07-23T06:20:00;6.75;;;4.15;;
22543;SDS011;11438;52.044;8.716;2022-07-23T06:22:26;6.47;;;3.80;;
22543;SDS011;11438;52.044;8.716;2022-07-23T06:24:51;6.18;;;3.85;;
22543;SDS011;11438;52.044;8.716;2022-07-23T06:27:17;4.88;;;3.50;;
22543;SDS011;11438;52.044;8.716;2022-07-23T06:29:43;6.57;;;4.25;;
22543;SDS011;11438;52.044;8.716;2022-07-23T06:32:08;6.35;;;4.07;;
22543;SDS011;11438;52.044;8.716;2022-07-23T06:34:34;4.78;;;3.50;;
22543;SDS011;11438;52.044;8.716;2022-07-23T06:36:59;5.28;;;3.40;;
22543;SDS011;11438;52.044;8.716;2022-07-23T06:39:25;4.65;;;3.45;;
22543;SDS011;11438;52.044;8.716;2022-07-23T06:41:51;4.00;;;3.10;;
22543;SDS011;11438;52.044;8.716;2022-07-23T06:44:17;6.18;;;3.42;;
22543;SDS011;11438;52.044;8.716;2022-07-23T06:46:43;5.85;;;3.53;;
22543;SDS011;11438;52.044;8.716;2022-07-23T06:49:08;6.95;;;3.75;;
22543;SDS011;11438;52.044;8.716;2022-07-23T06:51:34;7.60;;;4.05;;
22543;SDS011;11438;52.044;8.716;2022-07-23T06:54:00;6.57;;;3.72;;
22543;SDS011;11438;52.044;8.716;2022-07-23T06:56:26;6.00;;;3.90;;
22543;SDS011;11438;52.044;8.716;2022-07-23T06:58:51;5.18;;;2.90;;
22543;SDS011;11438;52.044;8.716;2022-07-23T07:01:17;4.47;;;3.20;;
22543;SDS011;11438;52.044;8.716;2022-07-23T07:03:43;7.32;;;3.60;;
22543;SDS011;11438;52.044;8.716;2022-07-23T07:06:09;7.18;;;3.22;;
22543;SDS011;11438;52.044;8.716;2022-07-23T07:08:35;5.45;;;3.40;;
22543;SDS011;11438;52.044;8.716;2022-07-23T07:11:00;5.25;;;3.63;;
22543;SDS011;11438;52.044;8.716;2022-07-23T07:13:26;4.88;;;3.15;;
22543;SDS011;11438;52.044;8.716;2022-07-23T07:15:51;5.72;;;3.03;;
22543;SDS011;11438;52.044;8.716;2022-07-23T07:18:17;6.13;;;2.90;;
22543;SDS011;11438;52.044;8.716;2022-07-23T07:20:42;4.97;;;2.75;;
22543;SDS011;11438;52.044;8.716;2022-07-23T07:23:08;5.10;;;2.75;;
22543;SDS011;11438;52.044;8.716;2022-07-23T07:25:33;4.80;;;2.95;;
22543;SDS011;11438;52.044;8.716;2022-07-23T07:27:59;4.07;;;3.20;;
22543;SDS011;11438;52.044;8.716;2022-07-23T07:30:24;4.53;;;3.10;;
22543;SDS011;11438;52.044;8.716;2022-07-23T07:32:50;3.97;;;2.65;;
22543;SDS011;11438;52.044;8.716;2022-07-23T07:35:15;5.45;;;2.65;;
22543;SDS011;11438;52.044;8.716;2022-07-23T07:37:41;8.38;;;2.97;;
22543;SDS011;11438;52.044;8.716;2022-07-23T07:40:07;6.25;;;2.80;;
22543;SDS011;11438;52.044;8.716;2022-07-23T07:42:33;6.95;;;4.13;;
22543;SDS011;11438;52.044;8.716;2022-07-23T07:44:58;4.63;;;3.10;;
22543;SDS011;11438;52.044;8.716;2022-07-23T07:47:24;5.82;;;3.60;;
22543;SDS011;11438;52.044;8.716;2022-07-23T07:49:50;6.25;;;3.45;;
22543;SDS011;11438;52.044;8.716;2022-07-23T07:52:15;4.53;;;3.28;;
22543;SDS011;11438;52.044;8.716;2022-07-23T07:54:40;6.78;;;4.20;;
22543;SDS011;11438;52.044;8.716;2022-07-23T07:57:07;7.55;;;3.85;;
22543;SDS011;11438;52.044;8.716;2022-07-23T07:59:33;6.95;;;3.60;;
22543;SDS011;11438;52.044;8.716;2022-07-23T08:01:58;6.53;;;3.67;;
22543;SDS011;11438;52.044;8.716;2022-07-23T08:04:24;5.03;;;3.13;;
22543;SDS011;11438;52.044;8.716;2022-07-23T08:06:49;3.63;;;3.05;;
22543;SDS011;11438;52.044;8.716;2022-07-23T08:09:15;4.68;;;2.78;;
22543;SDS011;11438;52.044;8.716;2022-07-23T08:11:40;4.60;;;2.67;;
22543;SDS011;11438;52.044;8.716;2022-07-23T08:14:06;4.47;;;2.80;;
22543;SDS011;11438;52.044;8.716;2022-07-23T08:16:31;4.43;;;2.30;;
22543;SDS011;11438;52.044;8.716;2022-07-23T08:18:57;3.17;;;2.15;;
22543;SDS011;11438;52.044;8.716;2022-07-23T08:21:22;4.70;;;1.70;;
22543;SDS011;11438;52.044;8.716;2022-07-23T08:23:48;3.63;;;1.90;;
22543;SDS011;11438;52.044;8.716;2022-07-23T08:26:13;3.00;;;1.98;;
22543;SDS011;11438;52.044;8.716;2022-07-23T08:28:39;4.97;;;2.00;;
22543;SDS011;11438;52.044;8.716;2022-07-23T08:31:04;3.45;;;2.10;;
22543;SDS011;11438;52.044;8.716;2022-07-23T08:33:32;2.60;;;1.90;;
22543;SDS011;11438;52.044;8.716;2022-07-23T08:35:58;3.75;;;2.10;;
22543;SDS011;11438;52.044;8.716;2022-07-23T08:38:24;3.22;;;2.10;;
22543;SDS011;11438;52.044;8.716;2022-07-23T08:40:50;5.85;;;2.03;;
22543;SDS011;11438;52.044;8.716;2022-07-23T08:43:22;3.10;;;1.85;;
22543;SDS011;11438;52.044;8.716;2022-07-23T08:45:49;3.60;;;2.00;;
22543;SDS011;11438;52.044;8.716;2022-07-23T08:48:17;3.97;;;1.88;;
22543;SDS011;11438;52.044;8.716;2022-07-23T08:50:45;3.88;;;1.83;;
22543;SDS011;11438;52.044;8.716;2022-07-23T08:53:12;4.35;;;2.00;;
22543;SDS011;11438;52.044;8.716;2022-07-23T08:55:39;3.95;;;1.80;;
22543;SDS011;11438;52.044;8.716;2022-07-23T08:58:07;3.85;;;1.80;;
22543;SDS011;11438;52.044;8.716;2022-07-23T09:00:33;3.60;;;1.60;;
22543;SDS011;11438;52.044;8.716;2022-07-23T09:02:58;3.95;;;1.65;;
22543;SDS011;11438;52.044;8.716;2022-07-23T09:05:24;5.18;;;2.05;;
22543;SDS011;11438;52.044;8.716;2022-07-23T09:13:30;3.58;;;2.08;;
22543;SDS011;11438;52.044;8.716;2022-07-23T09:26:17;3.20;;;2.13;;
22543;SDS011;11438;52.044;8.716;2022-07-23T09:28:51;5.38;;;2.00;;
22543;SDS011;11438;52.044;8.716;2022-07-23T09:31:19;3.17;;;2.08;;
22543;SDS011;11438;52.044;8.716;2022-07-23T09:33:45;4.57;;;1.80;;
22543;SDS011;11438;52.044;8.716;2022-07-23T09:36:10;3.28;;;1.55;;
22543;SDS011;11438;52.044;8.716;2022-07-23T09:38:37;2.35;;;1.60;;
22543;SDS011;11438;52.044;8.716;2022-07-23T09:41:13;3.67;;;1.90;;
22543;SDS011;11438;52.044;8.716;2022-07-23T09:43:40;2.97;;;2.10;;
22543;SDS011;11438;52.044;8.716;2022-07-23T09:46:19;3.13;;;1.75;;
22543;SDS011;11438;52.044;8.716;2022-07-23T09:48:55;2.97;;;2.05;;
22543;SDS011;11438;52.044;8.716;2022-07-23T09:51:21;3.33;;;2.10;;
22543;SDS011;11438;52.044;8.716;2022-07-23T09:53:51;3.17;;;2.00;;
22543;SDS011;11438;52.044;8.716;2022-07-23T09:56:16;3.90;;;2.20;;
22543;SDS011;11438;52.044;8.716;2022-07-23T09:58:44;4.70;;;2.42;;
22543;SDS011;11438;52.044;8.716;2022-07-23T10:01:12;4.07;;;2.20;;
22543;SDS011;11438;52.044;8.716;2022-07-23T10:03:39;2.63;;;2.03;;
22543;SDS011;11438;52.044;8.716;2022-07-23T10:06:05;2.10;;;1.90;;
22543;SDS011;11438;52.044;8.716;2022-07-23T10:08:32;4.20;;;2.40;;
22543;SDS011;11438;52.044;8.716;2022-07-23T10:10:58;6.40;;;2.40;;
22543;SDS011;11438;52.044;8.716;2022-07-23T10:13:25;4.90;;;2.17;;
22543;SDS011;11438;52.044;8.716;2022-07-23T10:16:09;4.43;;;1.80;;
22543;SDS011;11438;52.044;8.716;2022-07-23T10:18:35;6.38;;;2.50;;
22543;SDS011;11438;52.044;8.716;2022-07-23T10:21:01;2.65;;;2.00;;
22543;SDS011;11438;52.044;8.716;2022-07-23T10:26:22;2.17;;;1.88;;
22543;SDS011;11438;52.044;8.716;2022-07-23T10:28:58;3.22;;;1.85;;
22543;SDS011;11438;52.044;8.716;2022-07-23T10:31:41;4.75;;;2.30;;
22543;SDS011;11438;52.044;8.716;2022-07-23T10:34:18;3.80;;;1.85;;
22543;SDS011;11438;52.044;8.716;2022-07-23T10:36:56;3.85;;;2.03;;
22543;SDS011;11438;52.044;8.716;2022-07-23T10:39:36;3.65;;;1.73;;
22543;SDS011;11438;52.044;8.716;2022-07-23T10:42:12;3.67;;;1.92;;
22543;SDS011;11438;52.044;8.716;2022-07-23T10:44:41;3.60;;;2.03;;
22543;SDS011;11438;52.044;8.716;2022-07-23T10:47:10;2.10;;;1.58;;
22543;SDS011;11438;52.044;8.716;2022-07-23T10:49:48;3.15;;;1.77;;
22543;SDS011;11438;52.044;8.716;2022-07-23T10:57:06;3.47;;;1.73;;
22543;SDS011;11438;52.044;8.716;2022-07-23T11:02:32;3.95;;;2.30;;
22543;SDS011;11438;52.044;8.716;2022-07-23T11:04:59;3.13;;;1.77;;
22543;SDS011;11438;52.044;8.716;2022-07-23T11:07:26;3.22;;;1.67;;
22543;SDS011;11438;52.044;8.716;2022-07-23T11:09:53;2.40;;;1.45;;
22543;SDS011;11438;52.044;8.716;2022-07-23T11:15:04;3.22;;;1.70;;
22543;SDS011;11438;52.044;8.716;2022-07-23T11:17:38;5.90;;;1.67;;
22543;SDS011;11438;52.044;8.716;2022-07-23T11:20:24;2.35;;;1.60;;
22543;SDS011;11438;52.044;8.716;2022-07-23T11:22:51;3.00;;;1.33;;
22543;SDS011;11438;52.044;8.716;2022-07-23T11:27:48;3.05;;;1.67;;
22543;SDS011;11438;52.044;8.716;2022-07-23T11:32:53;2.72;;;1.70;;
22543;SDS011;11438;52.044;8.716;2022-07-23T11:35:40;1.92;;;1.48;;
22543;SDS011;11438;52.044;8.716;2022-07-23T11:38:07;2.65;;;1.35;;
22543;SDS011;11438;52.044;8.716;2022-07-23T11:40:40;4.80;;;2.17;;
22543;SDS011;11438;52.044;8.716;2022-07-23T11:43:08;2.53;;;1.42;;
22543;SDS011;11438;52.044;8.716;2022-07-23T11:45:37;2.08;;;1.52;;
22543;SDS011;11438;52.044;8.716;2022-07-23T11:48:08;3.67;;;1.60;;
22543;SDS011;11438;52.044;8.716;2022-07-23T11:50:34;2.08;;;1.30;;
22543;SDS011;11438;52.044;8.716;2022-07-23T11:53:02;1.85;;;1.00;;
22543;SDS011;11438;52.044;8.716;2022-07-23T11:55:28;2.05;;;1.20;;
22543;SDS011;11438;52.044;8.716;2022-07-23T11:57:54;2.65;;;1.60;;
22543;SDS011;11438;52.044;8.716;2022-07-23T12:00:21;3.10;;;1.35;;
22543;SDS011;11438;52.044;8.716;2022-07-23T12:02:50;1.92;;;1.35;;
22543;SDS011;11438;52.044;8.716;2022-07-23T12:05:19;1.63;;;1.13;;
22543;SDS011;11438;52.044;8.716;2022-07-23T12:07:47;2.17;;;1.23;;
22543;SDS011;11438;52.044;8.716;2022-07-23T12:10:18;2.28;;;1.25;;
22543;SDS011;11438;52.044;8.716;2022-07-23T12:12:46;3.05;;;1.20;;
22543;SDS011;11438;52.044;8.716;2022-07-23T12:15:18;2.65;;;1.10;;
22543;SDS011;11438;52.044;8.716;2022-07-23T12:17:47;4.80;;;1.38;;
22543;SDS011;11438;52.044;8.716;2022-07-23T12:20:20;3.15;;;1.50;;
22543;SDS011;11438;52.044;8.716;2022-07-23T12:22:48;1.52;;;1.20;;
22543;SDS011;11438;52.044;8.716;2022-07-23T12:25:16;2.78;;;1.38;;
22543;SDS011;11438;52.044;8.716;2022-07-23T12:27:43;2.28;;;1.30;;
22543;SDS011;11438;52.044;8.716;2022-07-23T12:30:16;1.95;;;1.10;;
22543;SDS011;11438;52.044;8.716;2022-07-23T12:32:43;3.17;;;1.20;;
22543;SDS011;11438;52.044;8.716;2022-07-23T12:35:10;2.83;;;0.98;;
22543;SDS011;11438;52.044;8.716;2022-07-23T12:37:37;2.67;;;1.40;;
22543;SDS011;11438;52.044;8.716;2022-07-23T12:40:20;1.95;;;1.00;;
22543;SDS011;11438;52.044;8.716;2022-07-23T12:42:51;1.48;;;0.80;;
22543;SDS011;11438;52.044;8.716;2022-07-23T12:45:18;2.10;;;0.80;;
22543;SDS011;11438;52.044;8.716;2022-07-23T12:47:58;1.20;;;0.65;;
22543;SDS011;11438;52.044;8.716;2022-07-23T12:50:43;1.38;;;0.82;;
22543;SDS011;11438;52.044;8.716;2022-07-23T12:53:14;3.80;;;1.00;;
22543;SDS011;11438;52.044;8.716;2022-07-23T12:55:42;1.92;;;0.82;;
22543;SDS011;11438;52.044;8.716;2022-07-23T13:00:51;2.25;;;1.10;;
22543;SDS011;11438;52.044;8.716;2022-07-23T13:03:26;1.35;;;0.75;;
22543;SDS011;11438;52.044;8.716;2022-07-23T13:05:54;1.50;;;0.63;;
22543;SDS011;11438;52.044;8.716;2022-07-23T13:08:20;1.23;;;0.90;;
22543;SDS011;11438;52.044;8.716;2022-07-23T13:10:47;1.85;;;0.70;;
22543;SDS011;11438;52.044;8.716;2022-07-23T13:13:13;3.40;;;1.00;;
22543;SDS011;11438;52.044;8.716;2022-07-23T13:15:40;1.77;;;1.08;;
22543;SDS011;11438;52.044;8.716;2022-07-23T13:18:06;1.77;;;0.80;;
22543;SDS011;11438;52.044;8.716;2022-07-23T13:20:32;2.45;;;0.77;;
22543;SDS011;11438;52.044;8.716;2022-07-23T13:22:58;2.28;;;0.60;;
22543;SDS011;11438;52.044;8.716;2022-07-23T13:25:24;2.05;;;0.70;;
22543;SDS011;11438;52.044;8.716;2022-07-23T13:27:50;2.42;;;0.73;;
22543;SDS011;11438;52.044;8.716;2022-07-23T13:30:16;1.67;;;0.88;;
22543;SDS011;11438;52.044;8.716;2022-07-23T13:32:41;2.40;;;0.80;;
22543;SDS011;11438;52.044;8.716;2022-07-23T13:35:08;4.00;;;0.80;;
22543;SDS011;11438;52.044;8.716;2022-07-23T13:37:34;2.25;;;0.70;;
22543;SDS011;11438;52.044;8.716;2022-07-23T13:40:00;1.15;;;0.50;;
22543;SDS011;11438;52.044;8.716;2022-07-23T13:42:25;1.30;;;0.70;;
22543;SDS011;11438;52.044;8.716;2022-07-23T13:44:51;1.65;;;0.65;;
22543;SDS011;11438;52.044;8.716;2022-07-23T13:47:16;0.95;;;0.60;;
22543;SDS011;11438;52.044;8.716;2022-07-23T13:49:42;1.40;;;0.70;;
22543;SDS011;11438;52.044;8.716;2022-07-23T13:52:07;1.05;;;0.60;;
22543;SDS011;11438;52.044;8.716;2022-07-23T13:54:33;0.52;;;0.52;;
22543;SDS011;11438;52.044;8.716;2022-07-23T13:56:59;0.88;;;0.70;;
22543;SDS011;11438;52.044;8.716;2022-07-23T13:59:24;1.60;;;0.60;;
22543;SDS011;11438;52.044;8.716;2022-07-23T14:01:50;1.83;;;0.80;;
22543;SDS011;11438;52.044;8.716;2022-07-23T14:04:15;1.02;;;0.55;;
22543;SDS011;11438;52.044;8.716;2022-07-23T14:06:41;1.75;;;0.60;;
22543;SDS011;11438;52.044;8.716;2022-07-23T14:09:06;1.50;;;0.70;;
22543;SDS011;11438;52.044;8.716;2022-07-23T14:11:32;1.38;;;0.55;;
22543;SDS011;11438;52.044;8.716;2022-07-23T14:13:58;0.85;;;0.63;;
22543;SDS011;11438;52.044;8.716;2022-07-23T14:16:25;1.83;;;0.80;;
22543;SDS011;11438;52.044;8.716;2022-07-23T14:18:51;1.33;;;0.70;;
22543;SDS011;11438;52.044;8.716;2022-07-23T14:21:17;2.70;;;0.68;;
22543;SDS011;11438;52.044;8.716;2022-07-23T14:23:42;2.40;;;0.70;;
22543;SDS011;11438;52.044;8.716;2022-07-23T14:26:08;0.75;;;0.60;;
22543;SDS011;11438;52.044;8.716;2022-07-23T14:28:33;1.05;;;0.60;;
22543;SDS011;11438;52.044;8.716;2022-07-23T14:30:59;0.75;;;0.60;;
22543;SDS011;11438;52.044;8.716;2022-07-23T14:33:24;3.28;;;0.70;;
22543;SDS011;11438;52.044;8.716;2022-07-23T14:35:50;1.83;;;0.80;;
22543;SDS011;11438;52.044;8.716;2022-07-23T14:38:15;2.25;;;0.60;;
22543;SDS011;11438;52.044;8.716;2022-07-23T14:40:41;2.63;;;0.70;;
22543;SDS011;11438;52.044;8.716;2022-07-23T14:43:07;1.70;;;0.60;;
22543;SDS011;11438;52.044;8.716;2022-07-23T14:45:32;0.90;;;0.60;;
22543;SDS011;11438;52.044;8.716;2022-07-23T14:47:58;0.90;;;0.50;;
22543;SDS011;11438;52.044;8.716;2022-07-23T14:50:23;1.33;;;0.68;;
22543;SDS011;11438;52.044;8.716;2022-07-23T14:52:49;1.20;;;0.70;;
22543;SDS011;11438;52.044;8.716;2022-07-23T14:55:15;2.08;;;0.70;;
22543;SDS011;11438;52.044;8.716;2022-07-23T14:57:42;1.75;;;0.60;;
22543;SDS011;11438;52.044;8.716;2022-07-23T15:00:08;0.73;;;0.50;;
22543;SDS011;11438;52.044;8.716;2022-07-23T15:02:34;1.25;;;0.70;;
22543;SDS011;11438;52.044;8.716;2022-07-23T15:04:59;1.08;;;0.60;;
22543;SDS011;11438;52.044;8.716;2022-07-23T15:07:28;0.80;;;0.60;;
22543;SDS011;11438;52.044;8.716;2022-07-23T15:09:55;1.60;;;0.70;;
22543;SDS011;11438;52.044;8.716;2022-07-23T15:12:23;0.52;;;0.52;;
22543;SDS011;11438;52.044;8.716;2022-07-23T15:14:49;1.73;;;0.70;;
22543;SDS011;11438;52.044;8.716;2022-07-23T15:17:15;1.27;;;0.88;;
22543;SDS011;11438;52.044;8.716;2022-07-23T15:19:41;1.67;;;0.77;;
22543;SDS011;11438;52.044;8.716;2022-07-23T15:22:06;1.63;;;0.68;;